createdAt,value
2023-05-05T00:00:37.000Z,8.81
2023-05-05T00:01:41.000Z,8.77
2023-05-05T00:02:44.000Z,8.7
2023-05-05T00:03:48.000Z,8.63
2023-05-05T00:04:52.000Z,8.52
2023-05-05T00:05:56.000Z,8.28
2023-05-05T00:07:00.000Z,7.99
2023-05-05T00:08:03.000Z,7.61
2023-05-05T00:09:07.000Z,7.36
2023-05-05T00:10:11.000Z,7.15
2023-05-05T00:11:15.000Z,7.0
2023-05-05T00:12:19.000Z,6.92
2023-05-05T00:13:23.000Z,6.91
2023-05-05T00:14:26.000Z,6.91
2023-05-05T00:15:30.000Z,6.93
2023-05-05T00:16:34.000Z,6.97
2023-05-05T00:17:38.000Z,7.03
2023-05-05T00:18:42.000Z,7.07
2023-05-05T00:19:45.000Z,7.08
2023-05-05T00:20:49.000Z,7.08
2023-05-05T00:21:53.000Z,7.06
2023-05-05T00:22:57.000Z,7.08
2023-05-05T00:24:01.000Z,7.11
2023-05-05T00:25:04.000Z,7.13
2023-05-05T00:26:08.000Z,7.19
2023-05-05T00:27:12.000Z,7.24
2023-05-05T00:28:16.000Z,7.28
2023-05-05T00:29:19.000Z,7.37
2023-05-05T00:30:23.000Z,7.42
2023-05-05T00:31:27.000Z,7.4
2023-05-05T00:32:30.000Z,7.4
2023-05-05T00:33:34.000Z,7.39
2023-05-05T00:34:38.000Z,7.37
2023-05-05T00:35:42.000Z,7.31
2023-05-05T00:36:46.000Z,7.29
2023-05-05T00:37:49.000Z,7.29
2023-05-05T00:38:53.000Z,7.33
2023-05-05T00:39:57.000Z,7.31
2023-05-05T00:41:01.000Z,7.29
2023-05-05T00:42:04.000Z,7.31
2023-05-05T00:43:08.000Z,7.31
2023-05-05T00:44:12.000Z,7.31
2023-05-05T00:45:16.000Z,7.33
2023-05-05T00:46:20.000Z,7.34
2023-05-05T00:47:24.000Z,7.33
2023-05-05T00:48:27.000Z,7.33
2023-05-05T00:49:31.000Z,7.34
2023-05-05T00:50:35.000Z,7.33
2023-05-05T00:51:39.000Z,7.34
2023-05-05T00:52:43.000Z,7.36
2023-05-05T00:53:47.000Z,7.36
2023-05-05T00:54:50.000Z,7.36
2023-05-05T00:55:54.000Z,7.33
2023-05-05T00:56:58.000Z,7.34
2023-05-05T00:58:02.000Z,7.29
2023-05-05T00:59:05.000Z,7.28
2023-05-05T01:00:09.000Z,7.28
2023-05-05T01:01:13.000Z,7.26
2023-05-05T01:02:17.000Z,7.24
2023-05-05T01:03:21.000Z,7.24
2023-05-05T01:04:24.000Z,7.19
2023-05-05T01:05:28.000Z,7.19
2023-05-05T01:06:32.000Z,7.21
2023-05-05T01:07:36.000Z,7.24
2023-05-05T01:08:40.000Z,7.25
2023-05-05T01:09:43.000Z,7.29
2023-05-05T01:10:47.000Z,7.31
2023-05-05T01:11:51.000Z,7.34
2023-05-05T01:12:55.000Z,7.34
2023-05-05T01:13:59.000Z,7.37
2023-05-05T01:15:02.000Z,7.39
2023-05-05T01:16:06.000Z,7.4
2023-05-05T01:17:10.000Z,7.4
2023-05-05T01:18:14.000Z,7.43
2023-05-05T01:19:17.000Z,7.43
2023-05-05T01:20:21.000Z,7.44
2023-05-05T01:21:25.000Z,7.44
2023-05-05T01:22:29.000Z,7.44
2023-05-05T01:23:32.000Z,7.46
2023-05-05T01:24:36.000Z,7.47
2023-05-05T01:25:40.000Z,7.47
2023-05-05T01:26:44.000Z,7.44
2023-05-05T01:27:47.000Z,7.46
2023-05-05T01:28:51.000Z,7.46
2023-05-05T01:29:55.000Z,7.43
2023-05-05T01:30:59.000Z,7.44
2023-05-05T01:32:02.000Z,7.43
2023-05-05T01:33:06.000Z,7.49
2023-05-05T01:34:10.000Z,7.49
2023-05-05T01:35:14.000Z,7.5
2023-05-05T01:36:17.000Z,7.49
2023-05-05T01:37:21.000Z,7.47
2023-05-05T01:38:25.000Z,7.46
2023-05-05T01:39:29.000Z,7.46
2023-05-05T01:40:32.000Z,7.43
2023-05-05T01:41:36.000Z,7.44
2023-05-05T01:42:40.000Z,7.43
2023-05-05T01:43:44.000Z,7.4
2023-05-05T01:44:48.000Z,7.4
2023-05-05T01:45:51.000Z,7.36
2023-05-05T01:46:55.000Z,7.16
2023-05-05T01:47:59.000Z,6.91
2023-05-05T01:49:03.000Z,6.73
2023-05-05T01:50:06.000Z,6.53
2023-05-05T01:51:10.000Z,6.42
2023-05-05T01:52:14.000Z,6.34
2023-05-05T01:53:18.000Z,6.35
2023-05-05T01:54:22.000Z,6.34
2023-05-05T01:55:25.000Z,6.35
2023-05-05T01:56:29.000Z,6.38
2023-05-05T01:57:33.000Z,6.35
2023-05-05T01:58:37.000Z,6.37
2023-05-05T01:59:40.000Z,6.37
2023-05-05T02:00:44.000Z,6.38
2023-05-05T02:01:48.000Z,6.37
2023-05-05T02:02:52.000Z,6.38
2023-05-05T02:03:56.000Z,6.4
2023-05-05T02:05:00.000Z,6.42
2023-05-05T02:06:03.000Z,6.45
2023-05-05T02:07:07.000Z,6.47
2023-05-05T02:08:11.000Z,6.49
2023-05-05T02:09:15.000Z,6.52
2023-05-05T02:10:19.000Z,6.55
2023-05-05T02:11:22.000Z,6.57
2023-05-05T02:12:26.000Z,6.61
2023-05-05T02:13:30.000Z,6.64
2023-05-05T02:14:34.000Z,6.65
2023-05-05T02:15:37.000Z,6.67
2023-05-05T02:16:41.000Z,6.74
2023-05-05T02:17:45.000Z,6.79
2023-05-05T02:18:48.000Z,6.79
2023-05-05T02:19:52.000Z,6.82
2023-05-05T02:20:56.000Z,6.85
2023-05-05T02:22:00.000Z,6.85
2023-05-05T02:23:03.000Z,6.83
2023-05-05T02:24:07.000Z,6.79
2023-05-05T02:25:11.000Z,6.82
2023-05-05T02:26:15.000Z,6.83
2023-05-05T02:27:18.000Z,6.85
2023-05-05T02:28:22.000Z,6.88
2023-05-05T02:29:26.000Z,6.82
2023-05-05T02:30:30.000Z,6.75
2023-05-05T02:31:33.000Z,6.73
2023-05-05T02:32:37.000Z,6.68
2023-05-05T02:33:41.000Z,6.65
2023-05-05T02:34:45.000Z,6.65
2023-05-05T02:35:48.000Z,6.63
2023-05-05T02:36:52.000Z,6.61
2023-05-05T02:37:56.000Z,6.56
2023-05-05T02:39:00.000Z,6.57
2023-05-05T02:40:03.000Z,6.49
2023-05-05T02:41:07.000Z,6.43
2023-05-05T02:42:11.000Z,6.46
2023-05-05T02:43:15.000Z,6.45
2023-05-05T02:44:19.000Z,6.43
2023-05-05T02:45:22.000Z,6.43
2023-05-05T02:46:26.000Z,6.42
2023-05-05T02:47:30.000Z,6.38
2023-05-05T02:48:34.000Z,6.37
2023-05-05T02:49:38.000Z,6.34
2023-05-05T02:50:41.000Z,6.34
2023-05-05T02:51:45.000Z,6.28
2023-05-05T02:52:49.000Z,6.27
2023-05-05T02:53:53.000Z,6.27
2023-05-05T02:54:57.000Z,6.25
2023-05-05T02:56:00.000Z,6.27
2023-05-05T02:57:04.000Z,6.27
2023-05-05T02:58:08.000Z,6.28
2023-05-05T02:59:12.000Z,6.3
2023-05-05T03:00:15.000Z,6.31
2023-05-05T03:01:19.000Z,6.32
2023-05-05T03:02:23.000Z,6.37
2023-05-05T03:03:27.000Z,6.37
2023-05-05T03:04:31.000Z,6.38
2023-05-05T03:05:34.000Z,6.4
2023-05-05T03:06:38.000Z,6.42
2023-05-05T03:07:42.000Z,6.42
2023-05-05T03:08:46.000Z,6.43
2023-05-05T03:09:50.000Z,6.45
2023-05-05T03:10:53.000Z,6.45
2023-05-05T03:11:57.000Z,6.46
2023-05-05T03:13:01.000Z,6.46
2023-05-05T03:14:05.000Z,6.47
2023-05-05T03:15:08.000Z,6.5
2023-05-05T03:16:12.000Z,6.52
2023-05-05T03:17:16.000Z,6.53
2023-05-05T03:18:20.000Z,6.53
2023-05-05T03:19:23.000Z,6.53
2023-05-05T03:20:27.000Z,6.56
2023-05-05T03:21:31.000Z,6.56
2023-05-05T03:22:35.000Z,6.6
2023-05-05T03:23:38.000Z,6.6
2023-05-05T03:24:42.000Z,6.61
2023-05-05T03:25:46.000Z,6.61
2023-05-05T03:26:50.000Z,6.6
2023-05-05T03:27:53.000Z,6.6
2023-05-05T03:28:57.000Z,6.6
2023-05-05T03:30:01.000Z,6.6
2023-05-05T03:31:05.000Z,6.57
2023-05-05T03:32:08.000Z,6.55
2023-05-05T03:33:12.000Z,6.53
2023-05-05T03:34:16.000Z,6.53
2023-05-05T03:35:20.000Z,6.52
2023-05-05T03:36:23.000Z,6.52
2023-05-05T03:37:27.000Z,6.52
2023-05-05T03:38:31.000Z,6.5
2023-05-05T03:39:35.000Z,6.52
2023-05-05T03:40:38.000Z,6.52
2023-05-05T03:41:42.000Z,6.5
2023-05-05T03:42:46.000Z,6.52
2023-05-05T03:43:50.000Z,6.52
2023-05-05T03:44:54.000Z,6.53
2023-05-05T03:45:57.000Z,6.55
2023-05-05T03:47:01.000Z,6.55
2023-05-05T03:48:05.000Z,6.56
2023-05-05T03:49:09.000Z,6.55
2023-05-05T03:50:13.000Z,6.6
2023-05-05T03:51:16.000Z,6.6
2023-05-05T03:52:20.000Z,6.6
2023-05-05T03:53:24.000Z,6.56
2023-05-05T03:54:28.000Z,6.55
2023-05-05T03:55:32.000Z,6.55
2023-05-05T03:56:35.000Z,6.53
2023-05-05T03:57:39.000Z,6.55
2023-05-05T03:58:43.000Z,6.55
2023-05-05T03:59:47.000Z,6.52
2023-05-05T04:00:51.000Z,6.52
2023-05-05T04:01:54.000Z,6.5
2023-05-05T04:02:58.000Z,6.53
2023-05-05T04:04:02.000Z,6.57
2023-05-05T04:05:06.000Z,6.6
2023-05-05T04:06:09.000Z,6.64
2023-05-05T04:07:13.000Z,6.67
2023-05-05T04:08:17.000Z,6.71
2023-05-05T04:09:21.000Z,6.78
2023-05-05T04:10:25.000Z,6.81
2023-05-05T04:11:28.000Z,6.83
2023-05-05T04:12:32.000Z,6.88
2023-05-05T04:13:36.000Z,6.93
2023-05-05T04:14:39.000Z,7.01
2023-05-05T04:15:43.000Z,7.04
2023-05-05T04:16:47.000Z,7.11
2023-05-05T04:17:51.000Z,7.22
2023-05-05T04:18:54.000Z,7.31
2023-05-05T04:19:58.000Z,7.36
2023-05-05T04:21:02.000Z,7.4
2023-05-05T04:22:06.000Z,7.42
2023-05-05T04:23:09.000Z,7.4
2023-05-05T04:24:13.000Z,7.42
2023-05-05T04:25:17.000Z,7.43
2023-05-05T04:26:21.000Z,7.44
2023-05-05T04:27:25.000Z,7.46
2023-05-05T04:28:29.000Z,7.49
2023-05-05T04:29:32.000Z,7.49
2023-05-05T04:30:36.000Z,7.49
2023-05-05T04:31:40.000Z,7.55
2023-05-05T04:32:44.000Z,7.54
2023-05-05T04:33:47.000Z,7.55
2023-05-05T04:34:51.000Z,7.57
2023-05-05T04:35:55.000Z,7.57
2023-05-05T04:36:59.000Z,7.58
2023-05-05T04:38:03.000Z,7.58
2023-05-05T04:39:07.000Z,7.6
2023-05-05T04:40:10.000Z,7.61
2023-05-05T04:41:14.000Z,7.64
2023-05-05T04:42:18.000Z,7.68
2023-05-05T04:43:22.000Z,7.73
2023-05-05T04:44:26.000Z,7.74
2023-05-05T04:45:30.000Z,7.77
2023-05-05T04:46:33.000Z,7.8
2023-05-05T04:47:37.000Z,7.83
2023-05-05T04:48:41.000Z,7.87
2023-05-05T04:49:45.000Z,7.91
2023-05-05T04:50:49.000Z,7.94
2023-05-05T04:51:52.000Z,7.96
2023-05-05T04:52:56.000Z,7.99
2023-05-05T04:54:00.000Z,8.02
2023-05-05T04:55:03.000Z,8.02
2023-05-05T04:56:07.000Z,8.06
2023-05-05T04:57:11.000Z,8.1
2023-05-05T04:58:15.000Z,8.14
2023-05-05T04:59:18.000Z,8.21
2023-05-05T05:00:22.000Z,8.26
2023-05-05T05:01:26.000Z,8.35
2023-05-05T05:02:30.000Z,8.46
2023-05-05T05:03:33.000Z,8.55
2023-05-05T05:04:37.000Z,8.59
2023-05-05T05:05:41.000Z,8.63
2023-05-05T05:06:45.000Z,8.68
2023-05-05T05:07:48.000Z,8.72
2023-05-05T05:08:52.000Z,8.78
2023-05-05T05:09:56.000Z,8.86
2023-05-05T05:11:00.000Z,8.96
2023-05-05T05:12:04.000Z,9.09
2023-05-05T05:13:07.000Z,9.22
2023-05-05T05:14:11.000Z,9.32
2023-05-05T05:15:15.000Z,9.4
2023-05-05T05:16:19.000Z,9.41
2023-05-05T05:17:22.000Z,9.42
2023-05-05T05:18:26.000Z,9.36
2023-05-05T05:19:30.000Z,9.32
2023-05-05T05:20:34.000Z,9.29
2023-05-05T05:21:37.000Z,9.27
2023-05-05T05:22:41.000Z,9.29
2023-05-05T05:23:45.000Z,9.3
2023-05-05T05:24:49.000Z,9.36
2023-05-05T05:25:53.000Z,9.44
2023-05-05T05:26:56.000Z,9.48
2023-05-05T05:28:00.000Z,9.57
2023-05-05T05:29:04.000Z,9.63
2023-05-05T05:30:08.000Z,9.7
2023-05-05T05:31:12.000Z,9.75
2023-05-05T05:32:15.000Z,9.83
2023-05-05T05:33:19.000Z,9.9
2023-05-05T05:34:23.000Z,9.98
2023-05-05T05:35:27.000Z,10.02
2023-05-05T05:36:30.000Z,10.14
2023-05-05T05:37:34.000Z,10.21
2023-05-05T05:38:38.000Z,10.26
2023-05-05T05:39:42.000Z,10.36
2023-05-05T05:40:46.000Z,10.43
2023-05-05T05:41:50.000Z,10.48
2023-05-05T05:42:53.000Z,10.58
2023-05-05T05:43:57.000Z,10.57
2023-05-05T05:45:01.000Z,10.58
2023-05-05T05:46:05.000Z,10.64
2023-05-05T05:47:09.000Z,10.72
2023-05-05T05:48:12.000Z,10.79
2023-05-05T05:49:16.000Z,10.91
2023-05-05T05:50:20.000Z,11.0
2023-05-05T05:51:24.000Z,11.08
2023-05-05T05:52:27.000Z,11.15
2023-05-05T05:53:31.000Z,11.27
2023-05-05T05:54:35.000Z,11.34
2023-05-05T05:55:39.000Z,11.37
2023-05-05T05:56:42.000Z,11.46
2023-05-05T05:57:46.000Z,11.54
2023-05-05T05:58:50.000Z,11.55
2023-05-05T05:59:54.000Z,11.62
2023-05-05T06:00:57.000Z,11.66
2023-05-05T06:02:01.000Z,11.69
2023-05-05T06:03:05.000Z,11.71
2023-05-05T06:04:09.000Z,11.71
2023-05-05T06:05:12.000Z,11.8
2023-05-05T06:06:16.000Z,11.85
2023-05-05T06:07:20.000Z,11.88
2023-05-05T06:08:24.000Z,11.91
2023-05-05T06:09:27.000Z,11.93
2023-05-05T06:10:31.000Z,11.97
2023-05-05T06:11:35.000Z,12.05
2023-05-05T06:12:38.000Z,12.11
2023-05-05T06:13:42.000Z,12.15
2023-05-05T06:14:46.000Z,12.15
2023-05-05T06:15:50.000Z,12.18
2023-05-05T06:16:53.000Z,12.21
2023-05-05T06:17:57.000Z,12.25
2023-05-05T06:19:01.000Z,12.3
2023-05-05T06:20:05.000Z,12.38
2023-05-05T06:21:09.000Z,12.44
2023-05-05T06:22:13.000Z,12.53
2023-05-05T06:23:16.000Z,12.61
2023-05-05T06:24:20.000Z,12.65
2023-05-05T06:25:24.000Z,12.69
2023-05-05T06:26:28.000Z,12.71
2023-05-05T06:27:32.000Z,12.73
2023-05-05T06:28:35.000Z,12.77
2023-05-05T06:29:39.000Z,12.84
2023-05-05T06:30:43.000Z,12.86
2023-05-05T06:31:47.000Z,12.88
2023-05-05T06:32:50.000Z,12.93
2023-05-05T06:33:54.000Z,12.99
2023-05-05T06:34:58.000Z,13.02
2023-05-05T06:36:02.000Z,13.16
2023-05-05T06:37:06.000Z,13.29
2023-05-05T06:38:09.000Z,13.39
2023-05-05T06:39:13.000Z,13.38
2023-05-05T06:40:17.000Z,13.36
2023-05-05T06:41:21.000Z,13.4
2023-05-05T06:42:25.000Z,13.39
2023-05-05T06:43:28.000Z,13.38
2023-05-05T06:44:32.000Z,13.36
2023-05-05T06:45:36.000Z,13.38
2023-05-05T06:46:40.000Z,13.43
2023-05-05T06:47:43.000Z,13.46
2023-05-05T06:48:47.000Z,13.53
2023-05-05T06:49:51.000Z,13.61
2023-05-05T06:50:55.000Z,13.67
2023-05-05T06:51:58.000Z,13.72
2023-05-05T06:53:02.000Z,13.79
2023-05-05T06:54:06.000Z,13.85
2023-05-05T06:55:10.000Z,13.96
2023-05-05T06:56:13.000Z,14.09
2023-05-05T06:57:17.000Z,14.21
2023-05-05T06:58:21.000Z,14.27
2023-05-05T06:59:25.000Z,14.34
2023-05-05T07:00:28.000Z,14.34
2023-05-05T07:01:32.000Z,14.34
2023-05-05T07:02:36.000Z,14.36
2023-05-05T07:03:40.000Z,14.44
2023-05-05T07:04:43.000Z,14.46
2023-05-05T07:05:47.000Z,14.49
2023-05-05T07:06:51.000Z,14.52
2023-05-05T07:07:55.000Z,14.55
2023-05-05T07:08:58.000Z,14.58
2023-05-05T07:10:02.000Z,14.58
2023-05-05T07:11:06.000Z,14.58
2023-05-05T07:12:10.000Z,14.59
2023-05-05T07:13:14.000Z,14.61
2023-05-05T07:14:17.000Z,14.66
2023-05-05T07:15:21.000Z,14.67
2023-05-05T07:16:25.000Z,14.73
2023-05-05T07:17:29.000Z,14.86
2023-05-05T07:18:33.000Z,14.93
2023-05-05T07:19:36.000Z,15.03
2023-05-05T07:20:40.000Z,15.08
2023-05-05T07:21:44.000Z,15.14
2023-05-05T07:22:48.000Z,15.22
2023-05-05T07:23:52.000Z,15.25
2023-05-05T07:24:55.000Z,15.25
2023-05-05T07:25:59.000Z,15.27
2023-05-05T07:27:03.000Z,15.33
2023-05-05T07:28:07.000Z,15.36
2023-05-05T07:29:11.000Z,15.44
2023-05-05T07:30:14.000Z,15.45
2023-05-05T07:31:18.000Z,15.52
2023-05-05T07:32:22.000Z,15.62
2023-05-05T07:33:26.000Z,15.7
2023-05-05T07:34:29.000Z,15.85
2023-05-05T07:35:33.000Z,15.96
2023-05-05T07:36:37.000Z,16.09
2023-05-05T07:37:41.000Z,16.25
2023-05-05T07:38:44.000Z,16.4
2023-05-05T07:39:48.000Z,16.58
2023-05-05T07:40:52.000Z,16.7
2023-05-05T07:41:56.000Z,16.76
2023-05-05T07:42:59.000Z,16.82
2023-05-05T07:44:03.000Z,16.84
2023-05-05T07:45:07.000Z,16.98
2023-05-05T07:46:11.000Z,17.12
2023-05-05T07:47:15.000Z,17.2
2023-05-05T07:48:18.000Z,17.25
2023-05-05T07:49:22.000Z,17.3
2023-05-05T07:50:26.000Z,17.19
2023-05-05T07:51:29.000Z,17.3
2023-05-05T07:52:33.000Z,17.43
2023-05-05T07:53:37.000Z,17.52
2023-05-05T07:54:41.000Z,17.73
2023-05-05T07:55:44.000Z,17.93
2023-05-05T07:56:48.000Z,17.97
2023-05-05T07:57:52.000Z,18.13
2023-05-05T07:58:56.000Z,18.23
2023-05-05T07:59:59.000Z,18.17
2023-05-05T08:01:03.000Z,18.11
2023-05-05T08:02:07.000Z,18.21
2023-05-05T08:03:11.000Z,18.31
2023-05-05T08:04:15.000Z,18.36
2023-05-05T08:05:18.000Z,18.36
2023-05-05T08:06:22.000Z,18.2
2023-05-05T08:07:26.000Z,18.02
2023-05-05T08:08:30.000Z,17.97
2023-05-05T08:09:34.000Z,17.99
2023-05-05T08:10:37.000Z,18.05
2023-05-05T08:11:41.000Z,18.12
2023-05-05T08:12:45.000Z,18.17
2023-05-05T08:13:49.000Z,18.21
2023-05-05T08:14:52.000Z,18.28
2023-05-05T08:15:56.000Z,18.36
2023-05-05T08:17:00.000Z,18.36
2023-05-05T08:18:04.000Z,18.3
2023-05-05T08:19:08.000Z,18.38
2023-05-05T08:20:11.000Z,18.45
2023-05-05T08:21:15.000Z,18.46
2023-05-05T08:22:19.000Z,18.45
2023-05-05T08:23:23.000Z,18.56
2023-05-05T08:24:27.000Z,18.64
2023-05-05T08:25:30.000Z,18.71
2023-05-05T08:26:34.000Z,18.75
2023-05-05T08:27:38.000Z,18.82
2023-05-05T08:28:42.000Z,18.96
2023-05-05T08:29:46.000Z,19.07
2023-05-05T08:30:49.000Z,19.23
2023-05-05T08:31:53.000Z,19.3
2023-05-05T08:32:57.000Z,19.3
2023-05-05T08:34:01.000Z,19.41
2023-05-05T08:35:04.000Z,19.53
2023-05-05T08:36:08.000Z,19.49
2023-05-05T08:37:12.000Z,19.42
2023-05-05T08:38:16.000Z,19.59
2023-05-05T08:39:19.000Z,19.68
2023-05-05T08:40:23.000Z,19.78
2023-05-05T08:41:27.000Z,19.84
2023-05-05T08:42:31.000Z,19.81
2023-05-05T08:43:34.000Z,19.86
2023-05-05T08:44:38.000Z,20.02
2023-05-05T08:45:42.000Z,20.18
2023-05-05T08:46:45.000Z,20.34
2023-05-05T08:47:49.000Z,20.56
2023-05-05T08:48:53.000Z,20.8
2023-05-05T08:49:57.000Z,21.0
2023-05-05T08:51:00.000Z,20.79
2023-05-05T08:52:04.000Z,20.56
2023-05-05T08:53:08.000Z,20.6
2023-05-05T08:54:12.000Z,20.83
2023-05-05T08:55:15.000Z,21.11
2023-05-05T08:56:19.000Z,21.16
2023-05-05T08:57:23.000Z,21.16
2023-05-05T08:58:27.000Z,21.19
2023-05-05T08:59:31.000Z,21.22
2023-05-05T09:00:35.000Z,21.37
2023-05-05T09:01:38.000Z,21.59
2023-05-05T09:02:42.000Z,21.35
2023-05-05T09:03:46.000Z,21.37
2023-05-05T09:04:50.000Z,21.35
2023-05-05T09:05:53.000Z,21.38
2023-05-05T09:06:57.000Z,21.22
2023-05-05T09:08:01.000Z,21.45
2023-05-05T09:09:05.000Z,21.53
2023-05-05T09:10:09.000Z,21.63
2023-05-05T09:11:12.000Z,21.75
2023-05-05T09:12:16.000Z,21.78
2023-05-05T09:13:20.000Z,21.84
2023-05-05T09:14:24.000Z,21.63
2023-05-05T09:15:28.000Z,21.67
2023-05-05T09:16:32.000Z,21.71
2023-05-05T09:17:35.000Z,21.88
2023-05-05T09:18:39.000Z,22.0
2023-05-05T09:19:43.000Z,22.15
2023-05-05T09:20:47.000Z,22.53
2023-05-05T09:21:51.000Z,22.96
2023-05-05T09:22:54.000Z,22.95
2023-05-05T09:23:58.000Z,22.7
2023-05-05T09:25:02.000Z,22.93
2023-05-05T09:26:06.000Z,23.14
2023-05-05T09:27:09.000Z,23.42
2023-05-05T09:28:13.000Z,23.69
2023-05-05T09:29:17.000Z,23.96
2023-05-05T09:30:21.000Z,23.84
2023-05-05T09:31:24.000Z,23.41
2023-05-05T09:32:28.000Z,23.18
2023-05-05T09:33:32.000Z,22.89
2023-05-05T09:34:36.000Z,23.08
2023-05-05T09:35:40.000Z,22.95
2023-05-05T09:36:43.000Z,22.83
2023-05-05T09:37:47.000Z,22.99
2023-05-05T09:38:51.000Z,22.98
2023-05-05T09:39:54.000Z,23.37
2023-05-05T09:40:58.000Z,23.26
2023-05-05T09:42:02.000Z,23.13
2023-05-05T09:43:06.000Z,22.99
2023-05-05T09:44:09.000Z,22.89
2023-05-05T09:45:13.000Z,22.77
2023-05-05T09:46:17.000Z,23.25
2023-05-05T09:47:21.000Z,23.44
2023-05-05T09:48:24.000Z,23.41
2023-05-05T09:49:28.000Z,23.26
2023-05-05T09:50:32.000Z,23.29
2023-05-05T09:51:36.000Z,23.17
2023-05-05T09:52:40.000Z,23.15
2023-05-05T09:53:43.000Z,23.55
2023-05-05T09:54:47.000Z,23.54
2023-05-05T09:55:51.000Z,23.85
2023-05-05T09:56:55.000Z,23.81
2023-05-05T09:57:58.000Z,23.6
2023-05-05T09:59:02.000Z,23.7
2023-05-05T10:00:06.000Z,23.52
2023-05-05T10:01:10.000Z,23.52
2023-05-05T10:02:14.000Z,23.63
2023-05-05T10:03:17.000Z,24.08
2023-05-05T10:04:21.000Z,24.15
2023-05-05T10:05:25.000Z,23.89
2023-05-05T10:06:29.000Z,23.71
2023-05-05T10:07:33.000Z,23.31
2023-05-05T10:08:36.000Z,23.15
2023-05-05T10:09:40.000Z,23.03
2023-05-05T10:10:44.000Z,22.95
2023-05-05T10:11:48.000Z,23.06
2023-05-05T10:12:52.000Z,23.04
2023-05-05T10:13:55.000Z,23.18
2023-05-05T10:14:59.000Z,23.34
2023-05-05T10:16:03.000Z,23.44
2023-05-05T10:17:07.000Z,23.48
2023-05-05T10:18:11.000Z,22.91
2023-05-05T10:19:14.000Z,22.55
2023-05-05T10:20:18.000Z,22.89
2023-05-05T10:21:22.000Z,23.18
2023-05-05T10:22:26.000Z,23.59
2023-05-05T10:23:29.000Z,23.74
2023-05-05T10:24:33.000Z,24.06
2023-05-05T10:25:37.000Z,24.4
2023-05-05T10:26:41.000Z,24.06
2023-05-05T10:27:44.000Z,23.56
2023-05-05T10:28:48.000Z,23.59
2023-05-05T10:29:52.000Z,23.55
2023-05-05T10:30:56.000Z,23.6
2023-05-05T10:31:59.000Z,23.59
2023-05-05T10:33:03.000Z,23.39
2023-05-05T10:34:07.000Z,23.6
2023-05-05T10:35:11.000Z,24.03
2023-05-05T10:36:14.000Z,24.33
2023-05-05T10:37:18.000Z,24.37
2023-05-05T10:38:22.000Z,24.06
2023-05-05T10:39:26.000Z,24.07
2023-05-05T10:40:29.000Z,24.19
2023-05-05T10:41:33.000Z,23.88
2023-05-05T10:42:37.000Z,23.85
2023-05-05T10:43:41.000Z,23.69
2023-05-05T10:44:44.000Z,23.78
2023-05-05T10:45:48.000Z,23.54
2023-05-05T10:46:52.000Z,23.17
2023-05-05T10:47:56.000Z,22.96
2023-05-05T10:49:00.000Z,22.76
2023-05-05T10:50:03.000Z,22.88
2023-05-05T10:51:07.000Z,23.18
2023-05-05T10:52:11.000Z,23.31
2023-05-05T10:53:15.000Z,23.49
2023-05-05T10:54:19.000Z,23.92
2023-05-05T10:55:22.000Z,24.37
2023-05-05T10:56:26.000Z,24.65
2023-05-05T10:57:30.000Z,25.04
2023-05-05T10:58:34.000Z,25.27
2023-05-05T10:59:37.000Z,25.23
2023-05-05T11:00:41.000Z,25.19
2023-05-05T11:01:45.000Z,24.68
2023-05-05T11:02:49.000Z,24.63
2023-05-05T11:03:53.000Z,24.74
2023-05-05T11:04:56.000Z,24.99
2023-05-05T11:06:00.000Z,24.89
2023-05-05T11:07:04.000Z,24.36
2023-05-05T11:08:08.000Z,24.53
2023-05-05T11:09:17.000Z,24.62
2023-05-05T11:10:21.000Z,24.58
2023-05-05T11:11:25.000Z,24.4
2023-05-05T11:12:28.000Z,23.96
2023-05-05T11:13:32.000Z,23.67
2023-05-05T11:14:36.000Z,23.29
2023-05-05T11:15:40.000Z,23.36
2023-05-05T11:16:44.000Z,23.25
2023-05-05T11:17:47.000Z,23.22
2023-05-05T11:18:51.000Z,23.13
2023-05-05T11:19:55.000Z,23.21
2023-05-05T11:20:59.000Z,23.29
2023-05-05T11:22:03.000Z,23.6
2023-05-05T11:23:06.000Z,23.96
2023-05-05T11:24:10.000Z,23.76
2023-05-05T11:25:14.000Z,23.88
2023-05-05T11:26:18.000Z,24.07
2023-05-05T11:27:21.000Z,23.66
2023-05-05T11:28:25.000Z,23.11
2023-05-05T11:29:29.000Z,23.07
2023-05-05T11:30:33.000Z,23.14
2023-05-05T11:31:37.000Z,23.03
2023-05-05T11:32:40.000Z,23.39
2023-05-05T11:33:44.000Z,23.97
2023-05-05T11:34:48.000Z,24.06
2023-05-05T11:35:51.000Z,23.85
2023-05-05T11:36:55.000Z,23.67
2023-05-05T11:37:59.000Z,23.7
2023-05-05T11:39:03.000Z,23.92
2023-05-05T11:40:06.000Z,24.03
2023-05-05T11:41:10.000Z,23.96
2023-05-05T11:42:14.000Z,23.78
2023-05-05T11:43:17.000Z,23.84
2023-05-05T11:44:21.000Z,23.85
2023-05-05T11:45:25.000Z,23.54
2023-05-05T11:46:29.000Z,23.61
2023-05-05T11:47:32.000Z,23.88
2023-05-05T11:48:36.000Z,24.04
2023-05-05T11:49:40.000Z,24.37
2023-05-05T11:50:44.000Z,24.45
2023-05-05T11:51:47.000Z,24.55
2023-05-05T11:52:51.000Z,24.7
2023-05-05T11:53:55.000Z,24.78
2023-05-05T11:54:59.000Z,25.03
2023-05-05T11:56:03.000Z,25.52
2023-05-05T11:57:06.000Z,25.67
2023-05-05T11:58:10.000Z,25.82
2023-05-05T11:59:14.000Z,25.89
2023-05-05T12:00:18.000Z,25.26
2023-05-05T12:01:21.000Z,25.16
2023-05-05T12:02:25.000Z,25.01
2023-05-05T12:03:29.000Z,24.81
2023-05-05T12:04:33.000Z,24.82
2023-05-05T12:05:37.000Z,24.82
2023-05-05T12:06:40.000Z,24.16
2023-05-05T12:07:44.000Z,24.07
2023-05-05T12:08:48.000Z,24.1
2023-05-05T12:09:52.000Z,23.94
2023-05-05T12:10:56.000Z,23.66
2023-05-05T12:11:59.000Z,23.98
2023-05-05T12:13:03.000Z,24.26
2023-05-05T12:14:07.000Z,23.76
2023-05-05T12:15:11.000Z,23.84
2023-05-05T12:16:15.000Z,23.84
2023-05-05T12:17:18.000Z,23.51
2023-05-05T12:18:22.000Z,23.61
2023-05-05T12:19:26.000Z,23.56
2023-05-05T12:20:30.000Z,23.69
2023-05-05T12:21:33.000Z,23.84
2023-05-05T12:22:37.000Z,24.08
2023-05-05T12:23:41.000Z,24.01
2023-05-05T12:24:45.000Z,24.13
2023-05-05T12:25:48.000Z,24.22
2023-05-05T12:26:52.000Z,24.11
2023-05-05T12:28:01.000Z,23.96
2023-05-05T12:29:05.000Z,23.81
2023-05-05T12:30:08.000Z,23.81
2023-05-05T12:31:12.000Z,23.84
2023-05-05T12:32:16.000Z,23.59
2023-05-05T12:33:20.000Z,23.64
2023-05-05T12:34:24.000Z,23.69
2023-05-05T12:35:27.000Z,23.61
2023-05-05T12:36:31.000Z,23.61
2023-05-05T12:37:35.000Z,24.06
2023-05-05T12:38:39.000Z,24.22
2023-05-05T12:39:43.000Z,24.74
2023-05-05T12:40:46.000Z,25.01
2023-05-05T12:41:50.000Z,25.19
2023-05-05T12:42:54.000Z,25.58
2023-05-05T12:43:58.000Z,25.46
2023-05-05T12:45:01.000Z,25.66
2023-05-05T12:46:05.000Z,25.46
2023-05-05T12:47:09.000Z,25.06
2023-05-05T12:48:13.000Z,24.85
2023-05-05T12:49:16.000Z,24.96
2023-05-05T12:50:20.000Z,25.03
2023-05-05T12:51:24.000Z,25.33
2023-05-05T12:52:28.000Z,25.18
2023-05-05T12:53:32.000Z,25.09
2023-05-05T12:54:35.000Z,25.03
2023-05-05T12:55:39.000Z,25.33
2023-05-05T12:56:43.000Z,24.91
2023-05-05T12:57:46.000Z,24.82
2023-05-05T12:58:50.000Z,24.81
2023-05-05T12:59:54.000Z,24.71
2023-05-05T13:00:58.000Z,24.65
2023-05-05T13:02:01.000Z,24.58
2023-05-05T13:03:05.000Z,24.56
2023-05-05T13:04:09.000Z,24.38
2023-05-05T13:05:13.000Z,24.28
2023-05-05T13:06:17.000Z,24.13
2023-05-05T13:07:20.000Z,24.31
2023-05-05T13:08:24.000Z,24.71
2023-05-05T13:09:28.000Z,24.74
2023-05-05T13:10:32.000Z,24.58
2023-05-05T13:11:36.000Z,24.47
2023-05-05T13:12:39.000Z,24.15
2023-05-05T13:13:43.000Z,24.01
2023-05-05T13:14:47.000Z,23.92
2023-05-05T13:15:51.000Z,23.78
2023-05-05T13:16:55.000Z,23.85
2023-05-05T13:17:58.000Z,23.82
2023-05-05T13:19:02.000Z,23.73
2023-05-05T13:20:06.000Z,23.74
2023-05-05T13:21:10.000Z,23.96
2023-05-05T13:22:14.000Z,24.0
2023-05-05T13:23:17.000Z,24.01
2023-05-05T13:24:21.000Z,24.23
2023-05-05T13:25:25.000Z,24.19
2023-05-05T13:26:29.000Z,23.94
2023-05-05T13:27:33.000Z,23.94
2023-05-05T13:28:36.000Z,24.01
2023-05-05T13:29:40.000Z,24.41
2023-05-05T13:30:44.000Z,24.66
2023-05-05T13:31:48.000Z,24.6
2023-05-05T13:32:52.000Z,24.55
2023-05-05T13:33:55.000Z,24.28
2023-05-05T13:34:59.000Z,24.45
2023-05-05T13:36:03.000Z,24.48
2023-05-05T13:37:07.000Z,24.74
2023-05-05T13:38:10.000Z,25.03
2023-05-05T13:39:14.000Z,24.89
2023-05-05T13:40:18.000Z,24.94
2023-05-05T13:41:22.000Z,25.03
2023-05-05T13:42:25.000Z,24.91
2023-05-05T13:43:29.000Z,24.75
2023-05-05T13:44:33.000Z,24.7
2023-05-05T13:45:37.000Z,24.41
2023-05-05T13:46:40.000Z,24.28
2023-05-05T13:47:44.000Z,23.86
2023-05-05T13:48:48.000Z,23.89
2023-05-05T13:49:52.000Z,24.01
2023-05-05T13:50:55.000Z,24.06
2023-05-05T13:51:59.000Z,24.22
2023-05-05T13:53:03.000Z,24.34
2023-05-05T13:54:07.000Z,24.15
2023-05-05T13:55:11.000Z,24.0